createdAt,value
2023-02-08T00:01:09.481Z,16.13
2023-02-08T00:06:15.206Z,17.25
2023-02-08T00:11:19.826Z,17.40
2023-02-08T00:16:35.665Z,17.80
2023-02-08T00:21:38.456Z,18.40
2023-02-08T00:26:41.360Z,18.10
2023-02-08T00:31:45.599Z,15.55
2023-02-08T00:36:48.676Z,15.70
2023-02-08T00:41:51.408Z,15.73
2023-02-08T00:46:55.981Z,17.70
2023-02-08T00:52:04.157Z,16.77
2023-02-08T00:57:09.205Z,17.25
2023-02-08T01:02:18.005Z,16.95
2023-02-08T01:07:21.471Z,16.88
2023-02-08T01:12:26.187Z,16.73
2023-02-08T01:17:30.343Z,16.10
2023-02-08T01:22:32.873Z,15.95
2023-02-08T01:27:35.597Z,16.30
2023-02-08T01:32:39.637Z,16.40
2023-02-08T01:37:42.138Z,15.07
2023-02-08T01:42:44.946Z,15.77
2023-02-08T01:47:53.447Z,15.35
2023-02-08T01:52:56.575Z,15.90
2023-02-08T01:58:03.889Z,14.60
2023-02-08T02:03:08.727Z,15.60
2023-02-08T02:08:12.779Z,16.05
2023-02-08T02:13:18.501Z,16.08
2023-02-08T02:18:25.691Z,15.20
2023-02-08T02:24:11.639Z,16.83
2023-02-08T02:29:44.503Z,16.27
2023-02-08T02:34:54.158Z,16.42
2023-02-08T02:40:06.427Z,17.27
2023-02-08T02:45:22.144Z,16.48
2023-02-08T02:50:33.176Z,17.87
2023-02-08T02:55:41.041Z,16.83
2023-02-08T03:00:44.033Z,16.60
2023-02-08T03:05:48.383Z,15.70
2023-02-08T03:11:01.156Z,16.40
2023-02-08T03:16:16.286Z,17.08
2023-02-08T03:21:29.276Z,17.20
2023-02-08T03:26:36.821Z,16.83
2023-02-08T03:31:46.138Z,17.70
2023-02-08T03:36:53.763Z,17.48
2023-02-08T03:42:00.987Z,16.92
2023-02-08T03:47:20.457Z,16.77
2023-02-08T03:52:25.323Z,17.90
2023-02-08T03:57:30.830Z,16.10
2023-02-08T04:02:39.101Z,15.68
2023-02-08T04:07:43.143Z,16.92
2023-02-08T04:12:48.110Z,16.10
2023-02-08T04:17:50.649Z,18.90
2023-02-08T04:22:54.611Z,15.82
2023-02-08T04:27:57.065Z,16.45
2023-02-08T04:32:59.646Z,17.42
2023-02-08T04:38:03.644Z,18.65
2023-02-08T04:43:15.681Z,18.65
2023-02-08T04:48:32.986Z,18.73
2023-02-08T04:53:56.784Z,18.55
2023-02-08T04:59:08.539Z,20.40
2023-02-08T05:04:17.865Z,19.48
2023-02-08T05:09:28.188Z,19.52
2023-02-08T05:14:38.130Z,18.02
2023-02-08T05:19:44.120Z,18.35
2023-02-08T05:24:48.655Z,19.23
2023-02-08T05:29:50.789Z,18.05
2023-02-08T05:34:52.883Z,18.58
2023-02-08T05:39:56.453Z,18.25
2023-02-08T05:44:58.502Z,17.13
2023-02-08T05:50:00.870Z,18.65
2023-02-08T05:55:04.716Z,18.17
2023-02-08T06:00:07.967Z,18.15
2023-02-08T06:05:10.173Z,17.80
2023-02-08T06:10:14.002Z,18.65
2023-02-08T06:15:16.312Z,18.13
2023-02-08T06:20:18.655Z,18.30
2023-02-08T06:25:22.262Z,19.00
2023-02-08T06:30:24.716Z,18.45
2023-02-08T06:35:26.910Z,20.63
2023-02-08T06:40:30.585Z,23.77
2023-02-08T06:45:32.663Z,18.50
2023-02-08T06:50:34.891Z,19.48
2023-02-08T06:55:39.283Z,18.65
2023-02-08T07:00:41.747Z,19.38
2023-02-08T07:05:58.769Z,17.02
2023-02-08T07:11:12.945Z,19.50
2023-02-08T07:16:15.746Z,19.77
2023-02-08T07:21:18.117Z,21.02
2023-02-08T07:26:21.797Z,21.45
2023-02-08T07:31:23.961Z,20.63
2023-02-08T07:36:26.165Z,20.75
2023-02-08T07:41:29.766Z,20.33
2023-02-08T07:46:31.920Z,20.05
2023-02-08T07:51:34.123Z,18.65
2023-02-08T07:56:37.744Z,18.58
2023-02-08T08:01:40.099Z,17.27
2023-02-08T08:06:42.239Z,17.13
2023-02-08T08:11:45.872Z,18.38
2023-02-08T08:16:48.110Z,19.05
2023-02-08T08:21:50.263Z,19.83
2023-02-08T08:26:53.959Z,20.58
2023-02-08T08:31:56.155Z,17.98
2023-02-08T08:36:58.750Z,18.60
2023-02-08T08:42:02.834Z,17.25
2023-02-08T08:47:05.174Z,17.08
2023-02-08T08:52:07.456Z,16.60
2023-02-08T08:57:11.628Z,16.48
2023-02-08T09:02:14.844Z,16.08
2023-02-08T09:07:17.209Z,15.35
2023-02-08T09:12:20.794Z,17.55
2023-02-08T09:17:22.975Z,16.65
2023-02-08T09:22:25.100Z,17.05
2023-02-08T09:27:28.793Z,17.85
2023-02-08T09:32:32.561Z,15.38
2023-02-08T09:37:35.329Z,15.70
2023-02-08T09:42:44.560Z,13.23
2023-02-08T09:47:54.536Z,14.90
2023-02-08T09:53:04.176Z,15.32
2023-02-08T09:58:19.456Z,13.65
2023-02-08T10:03:33.722Z,15.60
2023-02-08T10:08:37.371Z,14.02
2023-02-08T10:13:52.632Z,14.40
2023-02-08T10:19:06.799Z,11.95
2023-02-08T10:24:22.914Z,12.48
2023-02-08T10:29:48.499Z,12.68
2023-02-08T10:34:54.715Z,11.32
2023-02-08T10:40:00.914Z,10.77
2023-02-08T10:45:23.935Z,11.35
2023-02-08T10:50:34.187Z,10.93
2023-02-08T10:55:39.814Z,12.95
2023-02-08T11:00:44.748Z,10.40
2023-02-08T11:05:47.033Z,14.02
2023-02-08T11:10:59.622Z,10.57
2023-02-08T11:16:06.518Z,10.20
2023-02-08T11:21:21.173Z,10.65
2023-02-08T11:26:31.576Z,10.45
2023-02-08T11:31:35.336Z,10.73
2023-02-08T11:36:45.769Z,9.98
2023-02-08T11:41:50.657Z,9.95
2023-02-08T11:46:57.596Z,9.70
2023-02-08T11:51:59.974Z,9.02
2023-02-08T11:57:10.056Z,8.13
2023-02-08T12:02:36.178Z,8.95
2023-02-08T12:07:59.704Z,14.23
2023-02-08T12:13:23.296Z,8.93
2023-02-08T12:19:00.990Z,8.93
2023-02-08T12:24:11.802Z,9.32
2023-02-08T12:29:38.405Z,11.70
2023-02-08T12:35:04.670Z,10.00
2023-02-08T12:40:27.749Z,9.80
2023-02-08T12:45:48.117Z,9.75
2023-02-08T12:50:56.305Z,9.85
2023-02-08T12:56:05.598Z,9.70
2023-02-08T13:01:14.003Z,8.20
2023-02-08T13:06:21.414Z,7.57
2023-02-08T13:11:33.044Z,8.35
2023-02-08T13:16:41.845Z,7.57
2023-02-08T13:21:47.388Z,8.85
2023-02-08T13:26:51.273Z,7.05
2023-02-08T13:31:58.747Z,7.25
2023-02-08T13:37:08.814Z,6.65
2023-02-08T13:42:23.590Z,7.82
2023-02-08T13:47:29.795Z,6.53
2023-02-08T13:52:50.235Z,6.47
2023-02-08T13:57:57.622Z,8.88
2023-02-08T14:03:01.735Z,8.15
2023-02-08T14:08:06.957Z,9.63
2023-02-08T14:13:25.737Z,7.70
2023-02-08T14:18:28.951Z,6.85
2023-02-08T14:23:33.145Z,6.50
2023-02-08T14:28:39.426Z,6.93
2023-02-08T14:33:50.242Z,6.55
2023-02-08T14:39:05.840Z,6.72
2023-02-08T14:44:53.543Z,6.28
2023-02-08T14:50:05.511Z,7.07
2023-02-08T14:55:16.427Z,6.35
2023-02-08T15:00:23.008Z,6.20
2023-02-08T15:05:28.602Z,6.33
2023-02-08T15:10:32.346Z,5.95
2023-02-08T15:15:37.956Z,5.65
2023-02-08T15:20:41.917Z,5.10
2023-02-08T15:25:44.893Z,5.25
2023-02-08T15:30:55.371Z,5.53
2023-02-08T15:36:03.601Z,4.97
2023-02-08T15:41:09.709Z,26.67
2023-02-08T15:46:20.434Z,7.68
2023-02-08T15:51:25.082Z,9.45
2023-02-08T15:56:39.350Z,8.30
2023-02-08T16:01:47.521Z,29.77
2023-02-08T16:06:53.664Z,9.75
2023-02-08T16:11:58.750Z,7.72
2023-02-08T16:17:01.074Z,7.80
2023-02-08T16:22:25.546Z,27.55
2023-02-08T16:27:30.548Z,6.15
2023-02-08T16:32:35.423Z,5.93
2023-02-08T16:37:39.295Z,5.70
2023-02-08T16:42:41.603Z,9.48
2023-02-08T16:47:46.114Z,12.40
2023-02-08T16:52:53.426Z,5.38
2023-02-08T16:57:57.718Z,5.57
2023-02-08T17:03:00.127Z,5.70
2023-02-08T17:08:04.858Z,6.07
2023-02-08T17:13:19.906Z,8.18
2023-02-08T17:18:23.378Z,8.37
2023-02-08T17:23:27.057Z,6.68
2023-02-08T17:28:29.231Z,7.32
2023-02-08T17:33:31.426Z,7.18
2023-02-08T17:38:35.479Z,7.75
2023-02-08T17:43:37.747Z,8.07
2023-02-08T17:48:39.915Z,7.00
2023-02-08T17:53:44.101Z,8.55
2023-02-08T17:58:50.121Z,6.78
2023-02-08T18:03:55.252Z,6.32
2023-02-08T18:08:59.000Z,7.50
2023-02-08T18:14:01.112Z,7.03
2023-02-08T18:19:03.220Z,7.43
2023-02-08T18:24:07.201Z,9.77
2023-02-08T18:29:10.528Z,11.60
2023-02-08T18:34:12.822Z,6.80
2023-02-08T18:39:16.480Z,8.15
2023-02-08T18:44:19.076Z,10.10
2023-02-08T18:49:21.233Z,9.40
2023-02-08T18:54:24.702Z,9.75
2023-02-08T18:59:26.945Z,8.82
2023-02-08T19:04:29.318Z,8.45
2023-02-08T19:09:34.844Z,7.82
2023-02-08T19:14:37.013Z,9.05
2023-02-08T19:19:39.114Z,9.82
2023-02-08T19:24:42.630Z,9.15
2023-02-08T19:29:44.732Z,14.25
2023-02-08T19:34:46.806Z,14.07
2023-02-08T19:39:50.791Z,10.70
2023-02-08T19:44:52.910Z,9.52
2023-02-08T19:49:56.819Z,8.13
2023-02-08T19:55:00.797Z,8.75
2023-02-08T20:00:06.230Z,8.70
2023-02-08T20:05:10.769Z,12.88
2023-02-08T20:10:14.269Z,10.88
2023-02-08T20:15:16.488Z,7.72
2023-02-08T20:20:18.767Z,12.15
2023-02-08T20:25:22.749Z,10.10
2023-02-08T20:30:25.296Z,16.08
2023-02-08T20:35:27.412Z,18.67
2023-02-08T20:40:30.902Z,8.38
2023-02-08T20:45:33.166Z,7.55
2023-02-08T20:50:35.432Z,7.95
2023-02-08T20:55:42.367Z,7.57
2023-02-08T21:00:46.491Z,8.27
2023-02-08T21:05:48.757Z,7.85
2023-02-08T21:10:52.260Z,8.45
2023-02-08T21:15:54.458Z,7.45
2023-02-08T21:20:56.712Z,8.38
2023-02-08T21:26:00.841Z,8.18
2023-02-08T21:31:05.667Z,10.10
2023-02-08T21:36:08.851Z,10.38
2023-02-08T21:41:15.411Z,9.00
2023-02-08T21:46:18.419Z,10.13
2023-02-08T21:51:21.720Z,10.75
2023-02-08T21:56:25.358Z,11.70
2023-02-08T22:01:27.605Z,10.05
2023-02-08T22:06:29.738Z,11.60
2023-02-08T22:11:33.370Z,11.65
2023-02-08T22:16:35.476Z,10.40
2023-02-08T22:21:37.567Z,10.10
2023-02-08T22:26:41.143Z,9.23
2023-02-08T22:31:43.381Z,10.15
2023-02-08T22:36:45.750Z,9.15
2023-02-08T22:41:49.495Z,9.50
2023-02-08T22:46:51.705Z,10.35
2023-02-08T22:51:53.913Z,9.25
2023-02-08T22:56:57.630Z,9.63
2023-02-08T23:01:59.974Z,9.55
2023-02-08T23:07:02.224Z,9.25
2023-02-08T23:12:06.320Z,9.15
2023-02-08T23:17:08.653Z,8.80
2023-02-08T23:22:10.767Z,8.88
2023-02-08T23:27:14.219Z,9.30
2023-02-08T23:32:16.276Z,8.07
2023-02-08T23:37:18.378Z,7.88
2023-02-08T23:42:21.965Z,8.30
2023-02-08T23:47:25.688Z,8.65
2023-02-08T23:52:27.789Z,8.93
2023-02-08T23:57:34.015Z,8.50
